sensor_id;sensor_type;location;lat;lon;timestamp;temperature;humidity
1367;DHT22;16877;48.810;9.282;2022-11-12T00:01:50;19.10;49.20
1367;DHT22;16877;48.810;9.282;2022-11-12T00:04:16;19.10;49.10
1367;DHT22;16877;48.810;9.282;2022-11-12T00:06:43;19.00;49.10
1367;DHT22;16877;48.810;9.282;2022-11-12T00:09:10;19.10;49.10
1367;DHT22;16877;48.810;9.282;2022-11-12T00:11:36;19.00;49.00
1367;DHT22;16877;48.810;9.282;2022-11-12T00:14:03;19.00;49.00
1367;DHT22;16877;48.810;9.282;2022-11-12T00:16:31;19.00;49.00
1367;DHT22;16877;48.810;9.282;2022-11-12T00:18:58;18.90;48.90
1367;DHT22;16877;48.810;9.282;2022-11-12T00:21:25;18.90;49.00
1367;DHT22;16877;48.810;9.282;2022-11-12T00:23:52;18.90;48.90
1367;DHT22;16877;48.810;9.282;2022-11-12T00:26:19;18.90;48.90
1367;DHT22;16877;48.810;9.282;2022-11-12T00:28:45;18.90;48.90
1367;DHT22;16877;48.810;9.282;2022-11-12T00:31:12;18.90;48.90
1367;DHT22;16877;48.810;9.282;2022-11-12T00:33:42;18.80;48.80
1367;DHT22;16877;48.810;9.282;2022-11-12T00:36:09;18.80;48.80
1367;DHT22;16877;48.810;9.282;2022-11-12T00:38:36;18.80;48.80
1367;DHT22;16877;48.810;9.282;2022-11-12T00:41:03;18.80;48.80
1367;DHT22;16877;48.810;9.282;2022-11-12T00:43:30;18.70;48.60
1367;DHT22;16877;48.810;9.282;2022-11-12T00:45:57;18.80;48.80
1367;DHT22;16877;48.810;9.282;2022-11-12T00:48:24;18.70;48.60
1367;DHT22;16877;48.810;9.282;2022-11-12T00:50:58;18.70;48.60
1367;DHT22;16877;48.810;9.282;2022-11-12T00:53:25;18.70;48.60
1367;DHT22;16877;48.810;9.282;2022-11-12T00:55:51;18.70;48.50
1367;DHT22;16877;48.810;9.282;2022-11-12T00:58:18;18.70;48.50
1367;DHT22;16877;48.810;9.282;2022-11-12T01:00:45;18.70;48.50
1367;DHT22;16877;48.810;9.282;2022-11-12T01:03:11;18.60;48.40
1367;DHT22;16877;48.810;9.282;2022-11-12T01:05:38;18.60;48.40
1367;DHT22;16877;48.810;9.282;2022-11-12T01:08:06;18.60;48.30
1367;DHT22;16877;48.810;9.282;2022-11-12T01:10:34;18.60;48.30
1367;DHT22;16877;48.810;9.282;2022-11-12T01:13:01;18.60;48.90
1367;DHT22;16877;48.810;9.282;2022-11-12T01:15:27;18.50;48.20
1367;DHT22;16877;48.810;9.282;2022-11-12T01:17:55;18.50;48.20
1367;DHT22;16877;48.810;9.282;2022-11-12T01:20:22;18.50;48.20
1367;DHT22;16877;48.810;9.282;2022-11-12T01:22:48;18.50;48.30
1367;DHT22;16877;48.810;9.282;2022-11-12T01:25:16;18.50;48.20
1367;DHT22;16877;48.810;9.282;2022-11-12T01:27:43;18.40;48.10
1367;DHT22;16877;48.810;9.282;2022-11-12T01:30:10;18.50;48.20
1367;DHT22;16877;48.810;9.282;2022-11-12T01:32:37;18.40;48.10
1367;DHT22;16877;48.810;9.282;2022-11-12T01:35:04;18.40;48.10
1367;DHT22;16877;48.810;9.282;2022-11-12T01:37:31;18.40;48.70
1367;DHT22;16877;48.810;9.282;2022-11-12T01:39:58;18.40;48.10
1367;DHT22;16877;48.810;9.282;2022-11-12T01:42:28;18.40;48.10
1367;DHT22;16877;48.810;9.282;2022-11-12T01:44:55;18.40;48.10
1367;DHT22;16877;48.810;9.282;2022-11-12T01:47:25;18.40;48.10
1367;DHT22;16877;48.810;9.282;2022-11-12T01:49:56;18.30;48.10
1367;DHT22;16877;48.810;9.282;2022-11-12T01:52:28;18.30;48.10
1367;DHT22;16877;48.810;9.282;2022-11-12T01:55:00;18.30;48.10
1367;DHT22;16877;48.810;9.282;2022-11-12T01:57:32;18.30;48.60
1367;DHT22;16877;48.810;9.282;2022-11-12T02:00:04;18.30;48.10
1367;DHT22;16877;48.810;9.282;2022-11-12T02:02:33;18.30;48.10
1367;DHT22;16877;48.810;9.282;2022-11-12T02:05:01;18.20;48.00
1367;DHT22;16877;48.810;9.282;2022-11-12T02:07:29;18.30;48.10
1367;DHT22;16877;48.810;9.282;2022-11-12T02:09:58;18.20;48.10
1367;DHT22;16877;48.810;9.282;2022-11-12T02:12:25;18.30;48.10
1367;DHT22;16877;48.810;9.282;2022-11-12T02:15:08;18.20;48.10
1367;DHT22;16877;48.810;9.282;2022-11-12T02:17:35;18.20;48.40
1367;DHT22;16877;48.810;9.282;2022-11-12T02:20:02;18.20;48.10
1367;DHT22;16877;48.810;9.282;2022-11-12T02:22:30;18.20;48.20
1367;DHT22;16877;48.810;9.282;2022-11-12T02:24:57;18.10;48.10
1367;DHT22;16877;48.810;9.282;2022-11-12T02:27:24;18.10;48.10
1367;DHT22;16877;48.810;9.282;2022-11-12T02:29:51;18.10;48.10
1367;DHT22;16877;48.810;9.282;2022-11-12T02:32:17;18.10;48.10
1367;DHT22;16877;48.810;9.282;2022-11-12T02:34:45;18.10;48.10
1367;DHT22;16877;48.810;9.282;2022-11-12T02:37:12;18.10;48.10
1367;DHT22;16877;48.810;9.282;2022-11-12T02:39:40;18.10;48.10
1367;DHT22;16877;48.810;9.282;2022-11-12T02:42:06;18.10;48.10
1367;DHT22;16877;48.810;9.282;2022-11-12T02:44:33;18.10;48.10
1367;DHT22;16877;48.810;9.282;2022-11-12T02:47:00;18.10;48.10
1367;DHT22;16877;48.810;9.282;2022-11-12T02:49:26;18.00;48.10
1367;DHT22;16877;48.810;9.282;2022-11-12T02:51:53;18.00;48.00
1367;DHT22;16877;48.810;9.282;2022-11-12T02:54:20;18.00;48.00
1367;DHT22;16877;48.810;9.282;2022-11-12T02:56:48;18.00;48.00
1367;DHT22;16877;48.810;9.282;2022-11-12T02:59:15;18.00;48.10
1367;DHT22;16877;48.810;9.282;2022-11-12T03:01:41;18.00;48.00
1367;DHT22;16877;48.810;9.282;2022-11-12T03:04:08;18.00;48.00
1367;DHT22;16877;48.810;9.282;2022-11-12T03:06:35;17.90;48.00
1367;DHT22;16877;48.810;9.282;2022-11-12T03:09:02;17.90;48.00
1367;DHT22;16877;48.810;9.282;2022-11-12T03:11:28;17.90;48.10
1367;DHT22;16877;48.810;9.282;2022-11-12T03:13:56;17.90;48.00
1367;DHT22;16877;48.810;9.282;2022-11-12T03:16:23;17.90;48.60
1367;DHT22;16877;48.810;9.282;2022-11-12T03:18:50;17.90;48.00
1367;DHT22;16877;48.810;9.282;2022-11-12T03:21:16;17.90;48.00
1367;DHT22;16877;48.810;9.282;2022-11-12T03:23:43;17.80;48.00
1367;DHT22;16877;48.810;9.282;2022-11-12T03:26:10;17.80;48.00
1367;DHT22;16877;48.810;9.282;2022-11-12T03:28:36;17.80;48.00
1367;DHT22;16877;48.810;9.282;2022-11-12T03:31:05;17.80;48.00
1367;DHT22;16877;48.810;9.282;2022-11-12T03:33:31;17.80;48.10
1367;DHT22;16877;48.810;9.282;2022-11-12T03:35:58;17.80;48.10
1367;DHT22;16877;48.810;9.282;2022-11-12T03:38:25;17.80;48.20
1367;DHT22;16877;48.810;9.282;2022-11-12T03:40:52;17.80;48.20
1367;DHT22;16877;48.810;9.282;2022-11-12T03:43:18;17.80;48.30
1367;DHT22;16877;48.810;9.282;2022-11-12T03:45:45;17.80;48.20
1367;DHT22;16877;48.810;9.282;2022-11-12T03:48:13;17.80;48.20
1367;DHT22;16877;48.810;9.282;2022-11-12T03:50:40;17.80;48.20
1367;DHT22;16877;48.810;9.282;2022-11-12T03:53:07;17.80;48.20
1367;DHT22;16877;48.810;9.282;2022-11-12T03:55:34;17.80;48.20
1367;DHT22;16877;48.810;9.282;2022-11-12T03:58:01;17.80;48.20
1367;DHT22;16877;48.810;9.282;2022-11-12T04:00:28;17.80;48.30
1367;DHT22;16877;48.810;9.282;2022-11-12T04:02:56;17.80;48.20
1367;DHT22;16877;48.810;9.282;2022-11-12T04:05:24;17.80;48.20
1367;DHT22;16877;48.810;9.282;2022-11-12T04:08:12;17.80;48.20
1367;DHT22;16877;48.810;9.282;2022-11-12T04:10:56;17.80;48.20
1367;DHT22;16877;48.810;9.282;2022-11-12T04:13:23;17.80;48.20
1367;DHT22;16877;48.810;9.282;2022-11-12T04:15:52;17.80;48.30
1367;DHT22;16877;48.810;9.282;2022-11-12T04:18:32;17.80;48.30
1367;DHT22;16877;48.810;9.282;2022-11-12T04:21:18;17.80;48.30
1367;DHT22;16877;48.810;9.282;2022-11-12T04:24:02;17.70;48.20
1367;DHT22;16877;48.810;9.282;2022-11-12T04:26:29;17.70;48.30
1367;DHT22;16877;48.810;9.282;2022-11-12T04:28:54;17.70;48.20
1367;DHT22;16877;48.810;9.282;2022-11-12T04:31:35;17.80;48.30
1367;DHT22;16877;48.810;9.282;2022-11-12T04:34:02;17.70;48.30
1367;DHT22;16877;48.810;9.282;2022-11-12T04:36:44;17.80;48.30
1367;DHT22;16877;48.810;9.282;2022-11-12T04:39:10;17.70;48.30
1367;DHT22;16877;48.810;9.282;2022-11-12T04:41:37;17.80;48.40
1367;DHT22;16877;48.810;9.282;2022-11-12T04:44:22;17.80;48.40
1367;DHT22;16877;48.810;9.282;2022-11-12T04:47:06;17.80;48.40
1367;DHT22;16877;48.810;9.282;2022-11-12T04:49:32;17.70;48.40
1367;DHT22;16877;48.810;9.282;2022-11-12T04:52:00;17.70;48.40
1367;DHT22;16877;48.810;9.282;2022-11-12T04:54:33;17.80;48.50
1367;DHT22;16877;48.810;9.282;2022-11-12T04:57:00;17.80;48.50
1367;DHT22;16877;48.810;9.282;2022-11-12T04:59:27;17.80;48.50
1367;DHT22;16877;48.810;9.282;2022-11-12T05:01:53;17.80;48.50
1367;DHT22;16877;48.810;9.282;2022-11-12T05:04:20;17.80;48.50
1367;DHT22;16877;48.810;9.282;2022-11-12T05:06:47;17.80;48.50
1367;DHT22;16877;48.810;9.282;2022-11-12T05:09:19;17.80;48.40
1367;DHT22;16877;48.810;9.282;2022-11-12T05:11:46;17.80;48.40
1367;DHT22;16877;48.810;9.282;2022-11-12T05:14:13;17.70;48.40
1367;DHT22;16877;48.810;9.282;2022-11-12T05:16:40;17.70;48.30
1367;DHT22;16877;48.810;9.282;2022-11-12T05:19:07;17.80;48.30
1367;DHT22;16877;48.810;9.282;2022-11-12T05:21:34;17.70;48.20
1367;DHT22;16877;48.810;9.282;2022-11-12T05:24:20;17.70;48.20
1367;DHT22;16877;48.810;9.282;2022-11-12T05:26:46;17.70;48.20
1367;DHT22;16877;48.810;9.282;2022-11-12T05:29:13;17.70;48.20
1367;DHT22;16877;48.810;9.282;2022-11-12T05:31:40;17.70;48.30
1367;DHT22;16877;48.810;9.282;2022-11-12T05:34:07;17.70;48.20
1367;DHT22;16877;48.810;9.282;2022-11-12T05:36:34;17.70;48.20
1367;DHT22;16877;48.810;9.282;2022-11-12T05:39:00;17.70;48.10
1367;DHT22;16877;48.810;9.282;2022-11-12T05:41:28;17.70;48.10
1367;DHT22;16877;48.810;9.282;2022-11-12T05:43:55;17.70;48.10
1367;DHT22;16877;48.810;9.282;2022-11-12T05:46:22;17.70;48.10
1367;DHT22;16877;48.810;9.282;2022-11-12T05:48:49;17.70;48.20
1367;DHT22;16877;48.810;9.282;2022-11-12T05:51:16;17.70;48.20
1367;DHT22;16877;48.810;9.282;2022-11-12T05:53:42;17.60;48.10
1367;DHT22;16877;48.810;9.282;2022-11-12T05:56:10;17.70;48.20
1367;DHT22;16877;48.810;9.282;2022-11-12T05:58:38;17.70;48.20
1367;DHT22;16877;48.810;9.282;2022-11-12T06:01:05;17.60;48.20
1367;DHT22;16877;48.810;9.282;2022-11-12T06:03:32;17.60;48.20
1367;DHT22;16877;48.810;9.282;2022-11-12T06:05:59;17.60;48.20
1367;DHT22;16877;48.810;9.282;2022-11-12T06:08:26;17.60;48.20
1367;DHT22;16877;48.810;9.282;2022-11-12T06:10:53;17.60;48.20
1367;DHT22;16877;48.810;9.282;2022-11-12T06:13:22;17.60;48.20
1367;DHT22;16877;48.810;9.282;2022-11-12T06:15:50;17.60;48.20
1367;DHT22;16877;48.810;9.282;2022-11-12T06:18:17;17.60;48.20
1367;DHT22;16877;48.810;9.282;2022-11-12T06:20:44;17.60;48.10
1367;DHT22;16877;48.810;9.282;2022-11-12T06:23:30;17.60;48.10
1367;DHT22;16877;48.810;9.282;2022-11-12T06:25:57;17.60;48.10
1367;DHT22;16877;48.810;9.282;2022-11-12T06:28:24;17.60;48.10
1367;DHT22;16877;48.810;9.282;2022-11-12T06:30:52;17.60;48.10
1367;DHT22;16877;48.810;9.282;2022-11-12T06:33:19;17.60;48.10
1367;DHT22;16877;48.810;9.282;2022-11-12T06:35:46;17.50;48.00
1367;DHT22;16877;48.810;9.282;2022-11-12T06:38:13;17.50;48.10
1367;DHT22;16877;48.810;9.282;2022-11-12T06:40:40;17.50;48.00
1367;DHT22;16877;48.810;9.282;2022-11-12T06:43:07;17.50;48.10
1367;DHT22;16877;48.810;9.282;2022-11-12T06:45:35;17.50;48.00
1367;DHT22;16877;48.810;9.282;2022-11-12T06:48:03;17.50;48.10
1367;DHT22;16877;48.810;9.282;2022-11-12T06:50:30;17.50;48.10
1367;DHT22;16877;48.810;9.282;2022-11-12T06:52:57;17.50;48.10
1367;DHT22;16877;48.810;9.282;2022-11-12T06:55:24;17.50;48.10
1367;DHT22;16877;48.810;9.282;2022-11-12T06:57:51;17.60;48.20
1367;DHT22;16877;48.810;9.282;2022-11-12T07:00:18;17.50;48.10
1367;DHT22;16877;48.810;9.282;2022-11-12T07:02:45;17.60;48.30
1367;DHT22;16877;48.810;9.282;2022-11-12T07:05:13;17.60;48.30
1367;DHT22;16877;48.810;9.282;2022-11-12T07:07:40;17.60;48.30
1367;DHT22;16877;48.810;9.282;2022-11-12T07:10:08;17.60;48.30
1367;DHT22;16877;48.810;9.282;2022-11-12T07:12:34;17.60;48.30
1367;DHT22;16877;48.810;9.282;2022-11-12T07:15:01;17.70;48.40
1367;DHT22;16877;48.810;9.282;2022-11-12T07:17:29;17.70;48.40
1367;DHT22;16877;48.810;9.282;2022-11-12T07:19:55;17.80;48.40
1367;DHT22;16877;48.810;9.282;2022-11-12T07:22:23;17.90;48.50
1367;DHT22;16877;48.810;9.282;2022-11-12T07:24:51;18.00;48.60
1367;DHT22;16877;48.810;9.282;2022-11-12T07:27:18;18.10;48.50
1367;DHT22;16877;48.810;9.282;2022-11-12T07:29:44;18.20;48.50
1367;DHT22;16877;48.810;9.282;2022-11-12T07:32:11;18.40;48.50
1367;DHT22;16877;48.810;9.282;2022-11-12T07:34:38;18.50;48.60
1367;DHT22;16877;48.810;9.282;2022-11-12T07:37:04;18.60;48.60
1367;DHT22;16877;48.810;9.282;2022-11-12T07:39:32;18.70;48.60
1367;DHT22;16877;48.810;9.282;2022-11-12T07:41:59;18.80;51.20
1367;DHT22;16877;48.810;9.282;2022-11-12T07:44:26;18.60;50.20
1367;DHT22;16877;48.810;9.282;2022-11-12T07:46:52;18.80;51.30
1367;DHT22;16877;48.810;9.282;2022-11-12T07:49:19;18.90;49.20
1367;DHT22;16877;48.810;9.282;2022-11-12T07:51:46;19.10;49.10
1367;DHT22;16877;48.810;9.282;2022-11-12T07:54:13;19.20;49.00
1367;DHT22;16877;48.810;9.282;2022-11-12T07:56:41;19.30;48.80
1367;DHT22;16877;48.810;9.282;2022-11-12T07:59:11;19.60;48.90
1367;DHT22;16877;48.810;9.282;2022-11-12T08:01:39;19.80;49.30
1367;DHT22;16877;48.810;9.282;2022-11-12T08:04:07;20.00;48.70
1367;DHT22;16877;48.810;9.282;2022-11-12T08:06:35;20.30;48.60
1367;DHT22;16877;48.810;9.282;2022-11-12T08:09:04;20.50;48.40
1367;DHT22;16877;48.810;9.282;2022-11-12T08:11:31;20.70;48.30
1367;DHT22;16877;48.810;9.282;2022-11-12T08:13:59;21.00;48.10
1367;DHT22;16877;48.810;9.282;2022-11-12T08:16:26;21.60;57.90
1367;DHT22;16877;48.810;9.282;2022-11-12T08:18:53;22.30;57.60
1367;DHT22;16877;48.810;9.282;2022-11-12T08:21:20;22.80;56.90
1367;DHT22;16877;48.810;9.282;2022-11-12T08:23:46;23.40;55.90
1367;DHT22;16877;48.810;9.282;2022-11-12T08:26:15;23.80;54.90
1367;DHT22;16877;48.810;9.282;2022-11-12T08:28:42;24.00;52.40
1367;DHT22;16877;48.810;9.282;2022-11-12T08:31:12;24.10;50.70
1367;DHT22;16877;48.810;9.282;2022-11-12T08:33:39;24.10;49.90
1367;DHT22;16877;48.810;9.282;2022-11-12T08:36:08;24.20;49.40
1367;DHT22;16877;48.810;9.282;2022-11-12T08:38:35;24.20;48.80
1367;DHT22;16877;48.810;9.282;2022-11-12T08:41:03;24.30;48.20
1367;DHT22;16877;48.810;9.282;2022-11-12T08:43:30;24.30;47.50
1367;DHT22;16877;48.810;9.282;2022-11-12T08:45:58;24.50;47.30
1367;DHT22;16877;48.810;9.282;2022-11-12T08:48:27;24.60;47.00
1367;DHT22;16877;48.810;9.282;2022-11-12T08:50:54;24.60;46.50
1367;DHT22;16877;48.810;9.282;2022-11-12T08:53:23;24.70;46.20
1367;DHT22;16877;48.810;9.282;2022-11-12T08:55:51;24.80;45.90
1367;DHT22;16877;48.810;9.282;2022-11-12T08:58:19;24.90;45.70
1367;DHT22;16877;48.810;9.282;2022-11-12T09:00:46;25.00;45.40
1367;DHT22;16877;48.810;9.282;2022-11-12T09:03:18;25.10;45.40
1367;DHT22;16877;48.810;9.282;2022-11-12T09:05:47;25.20;45.20
1367;DHT22;16877;48.810;9.282;2022-11-12T09:08:16;25.20;44.90
1367;DHT22;16877;48.810;9.282;2022-11-12T09:10:43;25.30;44.80
1367;DHT22;16877;48.810;9.282;2022-11-12T09:13:10;25.40;44.80
1367;DHT22;16877;48.810;9.282;2022-11-12T09:15:38;25.40;44.60
1367;DHT22;16877;48.810;9.282;2022-11-12T09:18:07;25.50;44.50
1367;DHT22;16877;48.810;9.282;2022-11-12T09:20:34;25.50;44.40
1367;DHT22;16877;48.810;9.282;2022-11-12T09:23:05;25.50;44.30
1367;DHT22;16877;48.810;9.282;2022-11-12T09:25:32;25.50;44.40
1367;DHT22;16877;48.810;9.282;2022-11-12T09:28:09;25.60;44.20
1367;DHT22;16877;48.810;9.282;2022-11-12T09:30:37;25.60;44.00
1367;DHT22;16877;48.810;9.282;2022-11-12T09:33:04;25.60;44.60
1367;DHT22;16877;48.810;9.282;2022-11-12T09:35:31;25.70;44.00
1367;DHT22;16877;48.810;9.282;2022-11-12T09:37:57;25.80;44.00
1367;DHT22;16877;48.810;9.282;2022-11-12T09:40:38;26.00;44.00
1367;DHT22;16877;48.810;9.282;2022-11-12T09:43:15;26.10;43.90
1367;DHT22;16877;48.810;9.282;2022-11-12T09:45:44;26.20;43.70
1367;DHT22;16877;48.810;9.282;2022-11-12T09:48:15;26.30;43.60
1367;DHT22;16877;48.810;9.282;2022-11-12T09:50:52;26.30;43.60
1367;DHT22;16877;48.810;9.282;2022-11-12T09:53:24;26.30;43.60
1367;DHT22;16877;48.810;9.282;2022-11-12T09:55:53;26.40;43.60
1367;DHT22;16877;48.810;9.282;2022-11-12T09:58:19;26.50;43.50
1367;DHT22;16877;48.810;9.282;2022-11-12T10:00:53;26.50;43.40
1367;DHT22;16877;48.810;9.282;2022-11-12T10:03:29;26.60;43.40
1367;DHT22;16877;48.810;9.282;2022-11-12T10:06:02;26.70;43.10
1367;DHT22;16877;48.810;9.282;2022-11-12T10:08:36;26.70;43.00
1367;DHT22;16877;48.810;9.282;2022-11-12T10:11:17;26.70;43.20
1367;DHT22;16877;48.810;9.282;2022-11-12T10:13:59;26.80;42.80
1367;DHT22;16877;48.810;9.282;2022-11-12T10:16:44;26.80;42.60
1367;DHT22;16877;48.810;9.282;2022-11-12T10:22:17;26.90;42.60
1367;DHT22;16877;48.810;9.282;2022-11-12T10:24:48;27.00;42.40
1367;DHT22;16877;48.810;9.282;2022-11-12T10:27:18;27.10;42.40
1367;DHT22;16877;48.810;9.282;2022-11-12T10:29:52;27.20;42.30
1367;DHT22;16877;48.810;9.282;2022-11-12T10:32:21;27.40;42.10
1367;DHT22;16877;48.810;9.282;2022-11-12T10:34:48;27.60;42.20
1367;DHT22;16877;48.810;9.282;2022-11-12T10:37:19;27.80;42.20
1367;DHT22;16877;48.810;9.282;2022-11-12T10:39:49;27.90;42.10
1367;DHT22;16877;48.810;9.282;2022-11-12T10:42:19;28.00;41.90
1367;DHT22;16877;48.810;9.282;2022-11-12T10:44:46;28.10;41.80
1367;DHT22;16877;48.810;9.282;2022-11-12T10:47:32;28.10;41.60
1367;DHT22;16877;48.810;9.282;2022-11-12T10:50:11;28.20;41.40
1367;DHT22;16877;48.810;9.282;2022-11-12T10:52:52;28.40;41.90
1367;DHT22;16877;48.810;9.282;2022-11-12T10:55:21;28.10;39.40
1367;DHT22;16877;48.810;9.282;2022-11-12T10:58:06;27.90;39.30
1367;DHT22;16877;48.810;9.282;2022-11-12T11:00:33;27.40;39.30
1367;DHT22;16877;48.810;9.282;2022-11-12T11:03:01;27.30;39.60
1367;DHT22;16877;48.810;9.282;2022-11-12T11:05:32;27.10;40.40
1367;DHT22;16877;48.810;9.282;2022-11-12T15:36:55;15.70;66.00
1367;DHT22;16877;48.810;9.282;2022-11-12T15:39:23;18.60;60.00
1367;DHT22;16877;48.810;9.282;2022-11-12T15:41:56;19.10;58.40
1367;DHT22;16877;48.810;9.282;2022-11-12T15:44:24;19.50;57.30
1367;DHT22;16877;48.810;9.282;2022-11-12T15:46:51;19.90;56.80
1367;DHT22;16877;48.810;9.282;2022-11-12T15:49:18;20.20;56.10
1367;DHT22;16877;48.810;9.282;2022-11-12T15:51:44;20.40;55.50
1367;DHT22;16877;48.810;9.282;2022-11-12T15:54:13;20.60;55.10
1367;DHT22;16877;48.810;9.282;2022-11-12T15:56:39;20.80;54.80
1367;DHT22;16877;48.810;9.282;2022-11-12T15:59:09;20.90;54.50
1367;DHT22;16877;48.810;9.282;2022-11-12T16:01:39;21.00;54.10
1367;DHT22;16877;48.810;9.282;2022-11-12T16:04:06;21.10;54.50
1367;DHT22;16877;48.810;9.282;2022-11-12T16:06:33;21.20;53.70
1367;DHT22;16877;48.810;9.282;2022-11-12T16:09:00;21.20;53.50
1367;DHT22;16877;48.810;9.282;2022-11-12T16:11:28;21.30;53.40
1367;DHT22;16877;48.810;9.282;2022-11-12T16:14:05;21.30;53.30
1367;DHT22;16877;48.810;9.282;2022-11-12T16:16:32;21.30;53.10
1367;DHT22;16877;48.810;9.282;2022-11-12T16:18:59;21.40;53.10
1367;DHT22;16877;48.810;9.282;2022-11-12T16:21:26;21.40;53.10
1367;DHT22;16877;48.810;9.282;2022-11-12T16:23:53;21.40;53.00
1367;DHT22;16877;48.810;9.282;2022-11-12T16:26:24;21.40;53.00
1367;DHT22;16877;48.810;9.282;2022-11-12T16:28:54;21.40;52.90
1367;DHT22;16877;48.810;9.282;2022-11-12T16:31:22;21.40;52.90
1367;DHT22;16877;48.810;9.282;2022-11-12T16:33:49;21.40;53.00
1367;DHT22;16877;48.810;9.282;2022-11-12T16:36:15;21.40;53.00
1367;DHT22;16877;48.810;9.282;2022-11-12T16:38:43;21.40;52.90
1367;DHT22;16877;48.810;9.282;2022-11-12T16:41:11;21.40;53.00
1367;DHT22;16877;48.810;9.282;2022-11-12T16:43:39;21.40;53.00
1367;DHT22;16877;48.810;9.282;2022-11-12T16:46:13;21.40;52.90
1367;DHT22;16877;48.810;9.282;2022-11-12T16:48:40;21.30;52.90
1367;DHT22;16877;48.810;9.282;2022-11-12T16:51:12;21.30;53.00
1367;DHT22;16877;48.810;9.282;2022-11-12T16:53:40;21.30;53.00
1367;DHT22;16877;48.810;9.282;2022-11-12T16:56:11;21.30;52.90
1367;DHT22;16877;48.810;9.282;2022-11-12T16:58:38;21.30;53.00
1367;DHT22;16877;48.810;9.282;2022-11-12T17:01:11;21.30;54.30
1367;DHT22;16877;48.810;9.282;2022-11-12T17:03:39;21.40;54.40
1367;DHT22;16877;48.810;9.282;2022-11-12T17:06:06;21.50;53.80
1367;DHT22;16877;48.810;9.282;2022-11-12T17:08:32;21.50;53.30
1367;DHT22;16877;48.810;9.282;2022-11-12T17:11:05;21.40;52.90
1367;DHT22;16877;48.810;9.282;2022-11-12T17:13:32;21.40;52.90
1367;DHT22;16877;48.810;9.282;2022-11-12T17:15:58;21.30;52.80
1367;DHT22;16877;48.810;9.282;2022-11-12T17:18:26;21.30;52.70
1367;DHT22;16877;48.810;9.282;2022-11-12T17:20:53;21.20;52.70
1367;DHT22;16877;48.810;9.282;2022-11-12T17:23:20;21.20;52.70
1367;DHT22;16877;48.810;9.282;2022-11-12T17:25:46;21.10;52.60
1367;DHT22;16877;48.810;9.282;2022-11-12T17:28:13;21.10;52.70
1367;DHT22;16877;48.810;9.282;2022-11-12T17:30:40;21.10;52.70
1367;DHT22;16877;48.810;9.282;2022-11-12T17:33:06;21.00;52.60
1367;DHT22;16877;48.810;9.282;2022-11-12T17:35:35;21.00;52.70
1367;DHT22;16877;48.810;9.282;2022-11-12T17:38:01;20.90;52.60
1367;DHT22;16877;48.810;9.282;2022-11-12T17:40:28;20.90;52.60
1367;DHT22;16877;48.810;9.282;2022-11-12T17:42:55;20.90;52.60
1367;DHT22;16877;48.810;9.282;2022-11-12T17:45:21;20.80;52.60
1367;DHT22;16877;48.810;9.282;2022-11-12T17:47:48;20.80;52.60
1367;DHT22;16877;48.810;9.282;2022-11-12T17:50:15;20.80;52.60
1367;DHT22;16877;48.810;9.282;2022-11-12T17:52:43;20.80;52.60
1367;DHT22;16877;48.810;9.282;2022-11-12T17:55:10;20.70;52.50
1367;DHT22;16877;48.810;9.282;2022-11-12T17:57:36;20.70;52.60
1367;DHT22;16877;48.810;9.282;2022-11-12T18:00:04;20.70;52.60
1367;DHT22;16877;48.810;9.282;2022-11-12T18:02:31;20.60;52.50
1367;DHT22;16877;48.810;9.282;2022-11-12T18:04:58;20.60;53.10
1367;DHT22;16877;48.810;9.282;2022-11-12T18:07:24;20.60;52.60
1367;DHT22;16877;48.810;9.282;2022-11-12T18:09:52;20.60;52.60
1367;DHT22;16877;48.810;9.282;2022-11-12T18:12:19;20.50;52.50
1367;DHT22;16877;48.810;9.282;2022-11-12T18:14:46;20.50;52.50
1367;DHT22;16877;48.810;9.282;2022-11-12T18:17:12;20.50;52.50
1367;DHT22;16877;48.810;9.282;2022-11-12T18:19:39;20.40;52.50
1367;DHT22;16877;48.810;9.282;2022-11-12T18:22:06;20.40;52.50
1367;DHT22;16877;48.810;9.282;2022-11-12T18:24:33;20.40;52.50
1367;DHT22;16877;48.810;9.282;2022-11-12T18:27:01;20.40;52.50
1367;DHT22;16877;48.810;9.282;2022-11-12T18:29:27;20.30;52.50
1367;DHT22;16877;48.810;9.282;2022-11-12T18:31:54;20.30;52.50
1367;DHT22;16877;48.810;9.282;2022-11-12T18:34:21;20.30;52.50
1367;DHT22;16877;48.810;9.282;2022-11-12T18:36:47;20.30;52.50
1367;DHT22;16877;48.810;9.282;2022-11-12T18:39:14;20.30;52.50
1367;DHT22;16877;48.810;9.282;2022-11-12T18:41:41;20.20;52.40
1367;DHT22;16877;48.810;9.282;2022-11-12T18:44:11;20.20;52.50
1367;DHT22;16877;48.810;9.282;2022-11-12T18:46:38;20.20;52.50
1367;DHT22;16877;48.810;9.282;2022-11-12T18:49:05;20.20;52.50
1367;DHT22;16877;48.810;9.282;2022-11-12T18:51:31;20.10;52.40
1367;DHT22;16877;48.810;9.282;2022-11-12T18:53:58;20.10;52.40
1367;DHT22;16877;48.810;9.282;2022-11-12T18:56:25;20.10;52.40
1367;DHT22;16877;48.810;9.282;2022-11-12T18:58:51;20.10;52.40
1367;DHT22;16877;48.810;9.282;2022-11-12T19:01:21;20.10;52.50
1367;DHT22;16877;48.810;9.282;2022-11-12T19:03:52;20.00;52.50
1367;DHT22;16877;48.810;9.282;2022-11-12T19:06:21;20.00;52.60
1367;DHT22;16877;48.810;9.282;2022-11-12T19:08:49;20.00;52.60
1367;DHT22;16877;48.810;9.282;2022-11-12T19:11:17;19.90;52.50
1367;DHT22;16877;48.810;9.282;2022-11-12T19:13:49;20.00;52.60
1367;DHT22;16877;48.810;9.282;2022-11-12T19:16:21;19.90;52.50
1367;DHT22;16877;48.810;9.282;2022-11-12T19:18:49;19.90;52.50
1367;DHT22;16877;48.810;9.282;2022-11-12T19:21:18;19.90;52.50
1367;DHT22;16877;48.810;9.282;2022-11-12T19:23:46;19.90;52.50
1367;DHT22;16877;48.810;9.282;2022-11-12T19:26:14;19.80;52.50
1367;DHT22;16877;48.810;9.282;2022-11-12T19:28:44;19.80;52.50
1367;DHT22;16877;48.810;9.282;2022-11-12T19:31:13;19.80;52.60
1367;DHT22;16877;48.810;9.282;2022-11-12T19:33:43;19.80;52.50
1367;DHT22;16877;48.810;9.282;2022-11-12T19:36:12;19.80;52.60
1367;DHT22;16877;48.810;9.282;2022-11-12T19:38:39;19.70;52.50
1367;DHT22;16877;48.810;9.282;2022-11-12T19:41:08;19.70;52.60
1367;DHT22;16877;48.810;9.282;2022-11-12T19:43:35;19.70;52.60
1367;DHT22;16877;48.810;9.282;2022-11-12T19:46:02;19.60;52.50
1367;DHT22;16877;48.810;9.282;2022-11-12T19:48:29;19.60;52.50
1367;DHT22;16877;48.810;9.282;2022-11-12T19:51:01;19.60;52.50
1367;DHT22;16877;48.810;9.282;2022-11-12T19:53:29;19.60;52.50
1367;DHT22;16877;48.810;9.282;2022-11-12T19:55:58;19.60;52.60
1367;DHT22;16877;48.810;9.282;2022-11-12T19:58:25;19.50;52.50
1367;DHT22;16877;48.810;9.282;2022-11-12T20:00:52;19.50;52.50
1367;DHT22;16877;48.810;9.282;2022-11-12T20:03:18;19.50;52.50
1367;DHT22;16877;48.810;9.282;2022-11-12T20:05:49;19.50;52.50
1367;DHT22;16877;48.810;9.282;2022-11-12T20:08:18;19.50;52.50
1367;DHT22;16877;48.810;9.282;2022-11-12T20:10:48;19.50;52.50
1367;DHT22;16877;48.810;9.282;2022-11-12T20:13:15;19.50;52.40
1367;DHT22;16877;48.810;9.282;2022-11-12T20:15:42;19.40;52.60
1367;DHT22;16877;48.810;9.282;2022-11-12T20:18:08;19.40;52.30
1367;DHT22;16877;48.810;9.282;2022-11-12T20:20:35;19.40;52.30
1367;DHT22;16877;48.810;9.282;2022-11-12T20:23:02;19.40;52.30
1367;DHT22;16877;48.810;9.282;2022-11-12T20:25:30;19.40;52.30